createdAt,value
2023-04-07T00:00:39.154Z,20.45
2023-04-07T00:03:07.821Z,19.05
2023-04-07T00:05:34.856Z,18.70
2023-04-07T00:08:01.334Z,19.57
2023-04-07T00:10:27.818Z,18.95
2023-04-07T00:12:54.379Z,19.85
2023-04-07T00:15:21.159Z,18.48
2023-04-07T00:17:47.696Z,20.27
2023-04-07T00:20:14.230Z,21.53
2023-04-07T00:22:40.741Z,20.92
2023-04-07T00:25:07.655Z,20.23
2023-04-07T00:27:34.434Z,19.80
2023-04-07T00:30:01.332Z,19.70
2023-04-07T00:32:27.832Z,20.13
2023-04-07T00:34:54.341Z,20.40
2023-04-07T00:37:21.518Z,18.33
2023-04-07T00:39:48.092Z,21.65
2023-04-07T00:42:14.603Z,19.92
2023-04-07T00:44:41.269Z,20.40
2023-04-07T00:47:08.216Z,20.42
2023-04-07T00:49:34.781Z,21.00
2023-04-07T00:52:01.408Z,21.15
2023-04-07T00:54:30.012Z,21.27
2023-04-07T00:56:57.437Z,22.53
2023-04-07T00:59:25.173Z,21.55
2023-04-07T01:02:07.946Z,18.13
2023-04-07T01:05:05.500Z,22.48
2023-04-07T01:07:44.067Z,22.05
2023-04-07T01:10:17.335Z,22.30
2023-04-07T01:13:05.766Z,21.48
2023-04-07T01:15:34.945Z,20.85
2023-04-07T01:18:27.751Z,22.98
2023-04-07T01:21:00.866Z,21.17
2023-04-07T01:23:56.638Z,20.83
2023-04-07T01:26:30.233Z,19.20
2023-04-07T01:29:05.452Z,19.55
2023-04-07T01:31:32.801Z,19.80
2023-04-07T01:34:01.354Z,17.63
2023-04-07T01:36:28.512Z,19.37
2023-04-07T01:38:55.500Z,15.15
2023-04-07T01:41:23.664Z,12.93
2023-04-07T01:43:52.436Z,10.60
2023-04-07T01:46:20.401Z,10.40
2023-04-07T01:48:48.067Z,9.73
2023-04-07T01:51:19.054Z,8.13
2023-04-07T01:53:45.955Z,6.70
2023-04-07T01:56:12.510Z,6.10
2023-04-07T01:58:39.049Z,6.50
2023-04-07T02:01:08.572Z,6.60
2023-04-07T02:03:52.892Z,5.65
2023-04-07T02:06:24.522Z,5.40
2023-04-07T02:08:57.427Z,5.00
2023-04-07T02:11:26.277Z,5.15
2023-04-07T02:13:57.434Z,5.10
2023-04-07T02:16:26.988Z,5.32
2023-04-07T02:18:53.906Z,5.38
2023-04-07T02:21:21.430Z,5.00
2023-04-07T02:23:48.009Z,6.13
2023-04-07T02:26:14.590Z,5.73
2023-04-07T02:28:41.117Z,6.07
2023-04-07T02:31:07.612Z,6.10
2023-04-07T02:33:34.121Z,5.75
2023-04-07T02:36:00.927Z,6.00
2023-04-07T02:38:28.141Z,5.53
2023-04-07T02:40:55.493Z,6.18
2023-04-07T02:43:23.723Z,6.10
2023-04-07T02:45:51.570Z,5.85
2023-04-07T02:48:18.076Z,5.95
2023-04-07T02:50:44.501Z,6.07
2023-04-07T02:53:11.293Z,6.25
2023-04-07T02:55:37.923Z,7.07
2023-04-07T02:58:04.483Z,6.47
2023-04-07T03:00:38.788Z,6.07
2023-04-07T03:03:18.521Z,6.47
2023-04-07T03:05:57.544Z,6.72
2023-04-07T03:08:24.437Z,6.88
2023-04-07T03:10:51.969Z,7.40
2023-04-07T03:13:24.236Z,6.85
2023-04-07T03:15:51.122Z,6.93
2023-04-07T03:18:19.540Z,7.32
2023-04-07T03:20:48.735Z,7.03
2023-04-07T03:23:16.643Z,6.07
2023-04-07T03:25:43.666Z,7.10
2023-04-07T03:28:12.017Z,7.00
2023-04-07T03:30:39.596Z,7.63
2023-04-07T03:33:07.386Z,7.70
2023-04-07T03:35:33.958Z,7.28
2023-04-07T03:38:00.437Z,6.95
2023-04-07T03:40:27.006Z,6.87
2023-04-07T03:42:53.509Z,7.55
2023-04-07T03:45:20.018Z,7.68
2023-04-07T03:47:49.118Z,7.45
2023-04-07T03:50:16.786Z,7.65
2023-04-07T03:53:01.980Z,7.47
2023-04-07T03:55:31.176Z,7.03
2023-04-07T03:58:03.718Z,7.45
2023-04-07T04:00:34.001Z,6.70
2023-04-07T04:03:10.065Z,7.50
2023-04-07T04:05:43.215Z,7.73
2023-04-07T04:08:14.790Z,7.82
2023-04-07T04:10:42.100Z,8.65
2023-04-07T04:13:09.604Z,8.05
2023-04-07T04:15:36.693Z,7.47
2023-04-07T04:18:06.273Z,6.83
2023-04-07T04:20:34.318Z,8.18
2023-04-07T04:23:02.401Z,7.97
2023-04-07T04:25:29.125Z,7.82
2023-04-07T04:27:57.334Z,8.40
2023-04-07T04:30:26.096Z,7.53
2023-04-07T04:33:00.177Z,7.05
2023-04-07T04:35:34.376Z,7.60
2023-04-07T04:38:13.593Z,6.88
2023-04-07T04:40:45.307Z,7.85
2023-04-07T04:43:13.354Z,7.47
2023-04-07T04:45:41.618Z,6.68
2023-04-07T04:48:11.546Z,7.43
2023-04-07T04:50:38.148Z,6.72
2023-04-07T04:53:10.274Z,7.25
2023-04-07T04:55:47.117Z,7.43
2023-04-07T04:58:19.342Z,7.78
2023-04-07T05:00:48.209Z,7.25
2023-04-07T05:03:14.939Z,7.85
2023-04-07T05:05:48.420Z,7.65
2023-04-07T05:08:16.500Z,7.63
2023-04-07T05:10:42.992Z,6.93
2023-04-07T05:13:13.927Z,10.13
2023-04-07T05:15:42.297Z,8.35
2023-04-07T05:18:11.180Z,8.02
2023-04-07T05:20:38.124Z,8.20
2023-04-07T05:23:05.002Z,7.95
2023-04-07T05:25:33.802Z,7.47
2023-04-07T05:28:03.775Z,7.15
2023-04-07T05:30:31.425Z,6.80
2023-04-07T05:32:58.258Z,7.17
2023-04-07T05:35:37.098Z,7.40
2023-04-07T05:38:03.710Z,7.32
2023-04-07T05:40:30.802Z,8.02
2023-04-07T05:43:00.232Z,7.05
2023-04-07T05:45:29.394Z,7.60
2023-04-07T05:47:56.167Z,7.32
2023-04-07T05:50:31.445Z,6.43
2023-04-07T05:53:00.791Z,7.30
2023-04-07T05:55:27.426Z,7.15
2023-04-07T05:57:54.778Z,6.80
2023-04-07T06:00:24.499Z,6.68
2023-04-07T06:03:01.830Z,7.10
2023-04-07T06:05:32.372Z,7.70
2023-04-07T06:07:59.084Z,7.80
2023-04-07T06:10:27.378Z,8.03
2023-04-07T06:12:53.908Z,8.18
2023-04-07T06:15:21.169Z,7.38
2023-04-07T06:17:47.793Z,8.13
2023-04-07T06:20:14.311Z,7.90
2023-04-07T06:22:40.864Z,8.10
2023-04-07T06:25:07.895Z,7.35
2023-04-07T06:27:34.455Z,7.60
2023-04-07T06:30:01.079Z,7.13
2023-04-07T06:32:28.342Z,7.72
2023-04-07T06:34:54.875Z,8.13
2023-04-07T06:37:21.635Z,7.75
2023-04-07T06:39:48.162Z,7.50
2023-04-07T06:42:14.682Z,7.32
2023-04-07T06:44:49.975Z,7.55
2023-04-07T06:47:16.649Z,6.87
2023-04-07T06:49:43.117Z,7.05
2023-04-07T06:52:09.737Z,6.93
2023-04-07T06:54:36.314Z,7.22
2023-04-07T06:57:02.849Z,8.82
2023-04-07T06:59:29.297Z,6.90
2023-04-07T07:01:55.888Z,7.65
2023-04-07T07:04:22.742Z,8.65
2023-04-07T07:06:49.318Z,6.90
2023-04-07T07:09:15.998Z,6.22
2023-04-07T07:11:42.389Z,6.80
2023-04-07T07:14:08.886Z,6.30
2023-04-07T07:16:35.440Z,6.93
2023-04-07T07:19:01.935Z,7.20
2023-04-07T07:21:28.449Z,7.15
2023-04-07T07:23:54.898Z,6.40
2023-04-07T07:26:21.552Z,6.75
2023-04-07T07:28:48.066Z,6.75
2023-04-07T07:31:15.681Z,6.15
2023-04-07T07:33:44.015Z,6.88
2023-04-07T07:36:10.789Z,6.43
2023-04-07T07:38:37.934Z,6.40
2023-04-07T07:41:04.652Z,6.85
2023-04-07T07:43:31.346Z,6.82
2023-04-07T07:45:57.942Z,6.25
2023-04-07T07:48:24.595Z,6.27
2023-04-07T07:50:52.337Z,6.32
2023-04-07T07:53:18.838Z,5.38
2023-04-07T07:55:46.709Z,5.30
2023-04-07T07:58:13.201Z,5.85
2023-04-07T08:00:39.647Z,6.07
2023-04-07T08:03:06.535Z,5.97
2023-04-07T08:05:33.092Z,5.45
2023-04-07T08:08:00.064Z,4.97
2023-04-07T08:10:26.585Z,5.05
2023-04-07T08:12:53.013Z,5.20
2023-04-07T08:15:19.719Z,4.60
2023-04-07T08:17:46.328Z,5.57
2023-04-07T08:20:12.918Z,5.60
2023-04-07T08:22:39.386Z,5.50
2023-04-07T08:25:06.180Z,5.37
2023-04-07T08:27:32.932Z,6.07
2023-04-07T08:30:05.186Z,5.30
2023-04-07T08:32:44.691Z,5.97
2023-04-07T08:35:12.004Z,4.95
2023-04-07T08:37:39.808Z,5.30
2023-04-07T08:40:07.114Z,4.72
2023-04-07T08:42:35.010Z,4.30
2023-04-07T08:45:06.735Z,5.03
2023-04-07T08:47:34.672Z,4.20
2023-04-07T08:50:04.324Z,4.40
2023-04-07T08:52:39.972Z,4.45
2023-04-07T08:55:08.369Z,4.78
2023-04-07T08:57:35.039Z,4.30
2023-04-07T09:00:05.926Z,3.47
2023-04-07T09:02:43.633Z,3.93
2023-04-07T09:05:10.473Z,3.70
2023-04-07T09:07:38.415Z,3.42
2023-04-07T09:10:05.793Z,3.45
2023-04-07T09:12:33.045Z,3.30
2023-04-07T09:15:00.302Z,3.87
2023-04-07T09:17:27.474Z,3.22
2023-04-07T09:19:57.500Z,2.35
2023-04-07T09:22:40.524Z,2.85
2023-04-07T09:25:18.621Z,2.58
2023-04-07T09:28:04.875Z,2.87
2023-04-07T09:30:33.464Z,3.85
2023-04-07T09:33:01.241Z,2.17
2023-04-07T09:35:28.727Z,2.33
2023-04-07T09:38:09.045Z,2.22
2023-04-07T09:40:37.338Z,1.70
2023-04-07T09:43:05.721Z,2.17
2023-04-07T09:45:35.795Z,1.25
2023-04-07T09:48:07.726Z,1.80
2023-04-07T09:50:36.263Z,1.70
2023-04-07T09:53:04.596Z,1.70
2023-04-07T09:55:31.644Z,1.30
2023-04-07T09:57:58.378Z,1.25
2023-04-07T10:00:25.472Z,1.48
2023-04-07T10:02:53.271Z,1.15
2023-04-07T10:05:22.980Z,1.20
2023-04-07T10:07:49.711Z,1.38
2023-04-07T10:10:16.658Z,1.60
2023-04-07T10:12:43.598Z,0.70
2023-04-07T10:15:15.560Z,0.40
2023-04-07T10:17:48.105Z,0.60
2023-04-07T10:20:22.595Z,0.50
2023-04-07T10:22:51.496Z,0.50
2023-04-07T10:25:21.237Z,0.90
2023-04-07T10:27:59.144Z,0.73
2023-04-07T10:30:31.088Z,0.37
2023-04-07T10:32:58.922Z,0.40
2023-04-07T10:35:26.085Z,0.60
2023-04-07T10:38:11.755Z,0.45
2023-04-07T10:40:38.520Z,0.40
2023-04-07T10:43:09.586Z,0.30
2023-04-07T10:45:55.968Z,0.30
2023-04-07T10:48:22.779Z,0.30
2023-04-07T10:51:04.302Z,0.50
2023-04-07T10:53:34.906Z,0.50
2023-04-07T10:56:01.553Z,0.43
2023-04-07T10:58:31.710Z,0.60
2023-04-07T11:01:01.338Z,0.70
2023-04-07T11:03:29.225Z,0.60
2023-04-07T11:06:12.877Z,1.20
2023-04-07T11:08:49.309Z,1.10
2023-04-07T11:11:20.996Z,0.90
2023-04-07T11:13:49.505Z,0.90
2023-04-07T11:16:20.244Z,0.60
2023-04-07T11:18:47.930Z,0.60
2023-04-07T11:21:18.820Z,0.90
2023-04-07T11:23:47.052Z,1.23
2023-04-07T11:26:15.231Z,1.02
2023-04-07T11:28:49.565Z,1.38
2023-04-07T11:31:24.539Z,1.65
2023-04-07T11:33:56.714Z,1.40
2023-04-07T11:36:32.242Z,1.40
2023-04-07T11:38:59.425Z,2.40
2023-04-07T11:41:27.971Z,1.70
2023-04-07T11:44:11.393Z,1.80
2023-04-07T11:46:53.754Z,0.90
2023-04-07T11:49:20.654Z,1.30
2023-04-07T11:51:47.212Z,1.35
2023-04-07T11:54:13.737Z,1.58
2023-04-07T11:56:45.761Z,1.85
2023-04-07T11:59:23.661Z,1.57
2023-04-07T12:01:51.344Z,2.25
2023-04-07T12:04:18.820Z,2.20
2023-04-07T12:06:47.350Z,2.25
2023-04-07T12:09:36.110Z,2.53
2023-04-07T12:12:07.557Z,2.40
2023-04-07T12:14:35.578Z,2.30
2023-04-07T12:17:03.543Z,2.55
2023-04-07T12:19:35.928Z,5.53
2023-04-07T12:22:03.435Z,7.15
2023-04-07T12:24:31.439Z,7.10
2023-04-07T12:26:58.219Z,7.28
2023-04-07T12:29:24.767Z,7.13
2023-04-07T12:31:51.575Z,8.05
2023-04-07T12:34:18.595Z,9.43
2023-04-07T12:36:45.134Z,8.40
2023-04-07T12:39:11.822Z,7.85
2023-04-07T12:41:38.781Z,7.55
2023-04-07T12:44:05.937Z,8.85
2023-04-07T12:46:32.593Z,8.57
2023-04-07T12:48:59.260Z,6.60
2023-04-07T12:51:26.377Z,8.90
2023-04-07T12:53:54.179Z,8.93
2023-04-07T12:56:22.409Z,8.57
2023-04-07T12:58:49.076Z,5.90
2023-04-07T13:01:16.618Z,8.43
2023-04-07T13:03:43.800Z,9.07
2023-04-07T13:06:10.845Z,7.25
2023-04-07T13:08:38.395Z,9.50
2023-04-07T13:11:04.890Z,8.10
2023-04-07T13:13:31.898Z,7.53
2023-04-07T13:15:58.403Z,9.75
2023-04-07T13:18:25.301Z,8.55
2023-04-07T13:21:06.303Z,8.98
2023-04-07T13:23:43.271Z,8.93
2023-04-07T13:26:10.382Z,8.57
2023-04-07T13:28:37.349Z,7.30
2023-04-07T13:31:03.929Z,7.57
2023-04-07T13:33:30.640Z,5.45
2023-04-07T13:35:57.216Z,6.70
2023-04-07T13:38:23.685Z,9.10
2023-04-07T13:40:50.241Z,9.13
2023-04-07T13:43:18.494Z,6.63
2023-04-07T13:45:45.068Z,7.35
2023-04-07T13:48:11.759Z,9.43
2023-04-07T13:50:38.516Z,8.93
2023-04-07T13:53:05.046Z,9.32
2023-04-07T13:55:31.595Z,7.75
2023-04-07T13:57:58.080Z,7.38
2023-04-07T14:00:24.568Z,7.97
2023-04-07T14:02:51.198Z,6.50
2023-04-07T14:05:17.789Z,9.52
2023-04-07T14:07:44.289Z,9.20
2023-04-07T14:10:10.980Z,7.68
2023-04-07T14:12:37.462Z,6.72
2023-04-07T14:15:04.438Z,7.03
2023-04-07T14:17:30.982Z,5.95
2023-04-07T14:19:57.513Z,7.82
2023-04-07T14:22:23.983Z,8.63
2023-04-07T14:24:50.520Z,7.38
2023-04-07T14:27:20.852Z,7.23
2023-04-07T14:29:48.520Z,8.05
2023-04-07T14:32:16.153Z,9.93
2023-04-07T14:34:42.645Z,10.32
2023-04-07T14:37:09.152Z,8.02
2023-04-07T14:39:35.648Z,6.53
2023-04-07T14:42:02.198Z,6.97
2023-04-07T14:44:29.100Z,6.38
2023-04-07T14:46:56.151Z,6.25
2023-04-07T14:49:22.748Z,7.20
2023-04-07T14:51:49.248Z,6.77
2023-04-07T14:54:15.721Z,5.38
2023-04-07T14:56:42.223Z,5.40
2023-04-07T14:59:08.809Z,4.82
2023-04-07T15:01:35.423Z,5.22
2023-04-07T15:04:02.010Z,5.03
2023-04-07T15:06:28.580Z,4.80
2023-04-07T15:08:55.248Z,6.18
2023-04-07T15:11:21.844Z,6.90
2023-04-07T15:13:48.833Z,5.90
2023-04-07T15:16:16.180Z,5.57
2023-04-07T15:18:44.735Z,6.28
2023-04-07T15:21:12.585Z,10.45
2023-04-07T15:23:40.449Z,4.85
2023-04-07T15:26:07.732Z,5.70
2023-04-07T15:28:34.394Z,5.97
2023-04-07T15:31:01.429Z,4.40
2023-04-07T15:33:28.097Z,5.47
2023-04-07T15:35:54.787Z,4.20
2023-04-07T15:38:21.383Z,4.50
2023-04-07T15:40:47.859Z,4.57
2023-04-07T15:43:14.554Z,4.00
2023-04-07T15:45:44.764Z,3.80
2023-04-07T15:48:12.144Z,4.20
2023-04-07T15:50:38.766Z,4.18
2023-04-07T15:53:05.816Z,4.20
2023-04-07T15:55:36.597Z,3.80
2023-04-07T15:58:04.090Z,4.10
2023-04-07T16:00:33.614Z,4.13
2023-04-07T16:03:03.335Z,3.83
2023-04-07T16:05:30.134Z,4.67
2023-04-07T16:07:56.955Z,4.80
2023-04-07T16:10:24.025Z,4.45
2023-04-07T16:12:50.679Z,5.28
2023-04-07T16:15:32.471Z,5.40
2023-04-07T16:18:08.865Z,4.10
2023-04-07T16:20:35.683Z,4.32
2023-04-07T16:23:02.195Z,5.50
2023-04-07T16:25:28.742Z,5.05
2023-04-07T16:27:55.212Z,4.90
2023-04-07T16:30:21.999Z,5.20
2023-04-07T16:32:48.620Z,5.10
2023-04-07T16:35:15.965Z,4.90
2023-04-07T16:37:43.235Z,4.90
2023-04-07T16:40:10.399Z,5.30
2023-04-07T16:42:37.147Z,5.80
2023-04-07T16:45:04.405Z,5.78
2023-04-07T16:47:31.886Z,6.18
2023-04-07T16:49:59.163Z,5.88
2023-04-07T16:52:25.900Z,6.25
2023-04-07T16:54:52.676Z,6.17
2023-04-07T16:57:19.172Z,6.10
2023-04-07T16:59:46.405Z,6.05
2023-04-07T17:02:16.372Z,8.77
2023-04-07T17:04:44.199Z,9.93
2023-04-07T17:07:11.388Z,9.13
2023-04-07T17:09:37.975Z,8.20
2023-04-07T17:12:05.735Z,6.80
2023-04-07T17:14:32.355Z,6.97
2023-04-07T17:16:58.900Z,7.22
2023-04-07T17:19:25.618Z,8.20
2023-04-07T17:21:52.163Z,8.20
2023-04-07T17:24:18.684Z,7.68
2023-04-07T17:26:48.457Z,7.65
2023-04-07T17:29:15.921Z,6.93
2023-04-07T17:31:42.950Z,6.30
2023-04-07T17:34:10.105Z,6.03
2023-04-07T17:36:37.566Z,6.47
2023-04-07T17:39:05.060Z,6.10
2023-04-07T17:41:34.459Z,7.10
2023-04-07T17:44:01.321Z,7.23
2023-04-07T17:46:28.048Z,7.35
2023-04-07T17:48:55.031Z,7.95
2023-04-07T17:51:21.589Z,8.80
2023-04-07T17:53:48.606Z,7.55
2023-04-07T17:56:15.504Z,8.30
2023-04-07T17:58:42.197Z,12.85
2023-04-07T18:01:10.636Z,13.27
2023-04-07T18:03:37.650Z,11.40
2023-04-07T18:06:05.073Z,8.38
2023-04-07T18:08:31.600Z,10.17
2023-04-07T18:10:58.076Z,10.13
2023-04-07T18:13:24.584Z,10.98
2023-04-07T18:15:51.879Z,8.32
2023-04-07T18:18:19.635Z,7.25
2023-04-07T18:20:46.630Z,8.23
2023-04-07T18:23:13.584Z,9.55
2023-04-07T18:25:40.184Z,9.13
2023-04-07T18:28:06.822Z,8.13
2023-04-07T18:30:33.511Z,8.90
2023-04-07T18:33:00.065Z,9.10
2023-04-07T18:35:27.014Z,8.98
2023-04-07T18:37:53.619Z,9.23
2023-04-07T18:40:20.422Z,7.40
2023-04-07T18:42:47.063Z,7.82
2023-04-07T18:45:13.703Z,9.10
2023-04-07T18:47:40.309Z,10.55
2023-04-07T18:50:07.596Z,11.05
2023-04-07T18:52:34.104Z,10.85
2023-04-07T18:55:00.601Z,10.73
2023-04-07T18:57:27.129Z,9.10
2023-04-07T18:59:53.920Z,10.85
2023-04-07T19:02:20.677Z,11.38
2023-04-07T19:04:47.330Z,10.95
2023-04-07T19:07:13.864Z,10.43
2023-04-07T19:09:40.577Z,9.33
2023-04-07T19:12:07.153Z,10.18
2023-04-07T19:14:33.635Z,11.13
2023-04-07T19:17:00.352Z,12.20
2023-04-07T19:19:28.036Z,10.82
2023-04-07T19:21:54.503Z,10.00
2023-04-07T19:24:21.036Z,10.63
2023-04-07T19:26:47.766Z,10.63
2023-04-07T19:29:14.352Z,10.80
2023-04-07T19:31:40.957Z,9.82
2023-04-07T19:34:07.461Z,10.47
2023-04-07T19:36:34.073Z,11.07
2023-04-07T19:39:00.954Z,9.25
2023-04-07T19:41:27.685Z,10.38
2023-04-07T19:43:54.204Z,8.88
2023-04-07T19:46:20.881Z,9.77
2023-04-07T19:48:47.956Z,10.23
2023-04-07T19:51:15.287Z,11.13
2023-04-07T19:53:42.100Z,9.30
2023-04-07T19:56:08.609Z,9.07
2023-04-07T19:58:35.151Z,9.50
2023-04-07T20:01:04.453Z,9.02
2023-04-07T20:03:31.502Z,8.43
2023-04-07T20:05:58.140Z,8.90
2023-04-07T20:08:24.751Z,9.15
2023-04-07T20:10:52.608Z,9.33
2023-04-07T20:13:20.227Z,9.80
2023-04-07T20:15:48.996Z,9.48
2023-04-07T20:18:18.390Z,8.68
2023-04-07T20:20:45.901Z,9.85
2023-04-07T20:23:13.515Z,9.73
2023-04-07T20:25:40.086Z,9.45
2023-04-07T20:28:06.621Z,8.95
2023-04-07T20:30:33.196Z,9.57
2023-04-07T20:32:59.806Z,8.15
2023-04-07T20:35:26.561Z,10.27
2023-04-07T20:37:53.167Z,10.10
2023-04-07T20:40:19.661Z,10.25
2023-04-07T20:42:46.709Z,10.35
2023-04-07T20:45:13.321Z,9.10
2023-04-07T20:47:40.560Z,9.87
2023-04-07T20:50:08.113Z,7.30
2023-04-07T20:52:39.433Z,9.10
2023-04-07T20:55:07.217Z,10.77
2023-04-07T20:57:33.691Z,10.75
2023-04-07T21:00:00.844Z,9.80
2023-04-07T21:02:27.564Z,9.95
2023-04-07T21:04:54.220Z,10.15
2023-04-07T21:07:20.711Z,11.25
2023-04-07T21:09:47.201Z,9.52
2023-04-07T21:12:14.209Z,9.50
2023-04-07T21:14:40.719Z,9.30
2023-04-07T21:17:07.193Z,9.38
2023-04-07T21:19:33.727Z,8.00
2023-04-07T21:22:03.688Z,9.20
2023-04-07T21:24:31.875Z,9.20
2023-04-07T21:26:58.366Z,10.48
2023-04-07T21:29:24.873Z,9.85
2023-04-07T21:31:51.398Z,9.15
2023-04-07T21:34:17.906Z,11.13
2023-04-07T21:36:44.449Z,11.60
2023-04-07T21:39:10.930Z,11.38
2023-04-07T21:41:37.431Z,11.20
2023-04-07T21:44:09.131Z,9.82
2023-04-07T21:46:37.798Z,10.00
2023-04-07T21:49:04.569Z,9.27
2023-04-07T21:51:31.118Z,10.73
2023-04-07T21:53:57.610Z,10.60
2023-04-07T21:56:24.127Z,9.77
2023-04-07T21:58:50.724Z,10.30
2023-04-07T22:01:17.517Z,9.97
2023-04-07T22:03:45.634Z,9.75
2023-04-07T22:06:12.254Z,9.60
2023-04-07T22:08:39.194Z,8.90
2023-04-07T22:11:07.695Z,9.23
2023-04-07T22:13:35.566Z,9.60
2023-04-07T22:16:02.343Z,8.23
2023-04-07T22:18:29.212Z,8.10
2023-04-07T22:20:55.704Z,9.27
2023-04-07T22:23:22.194Z,9.32
2023-04-07T22:25:49.295Z,8.67
2023-04-07T22:28:16.055Z,8.98
2023-04-07T22:30:42.680Z,9.73
2023-04-07T22:33:10.657Z,9.00
2023-04-07T22:35:37.928Z,9.45
2023-04-07T22:38:04.477Z,8.60
2023-04-07T22:40:30.979Z,8.13
2023-04-07T22:42:57.712Z,9.10
2023-04-07T22:45:24.183Z,9.18
2023-04-07T22:47:51.568Z,7.97
2023-04-07T22:50:18.262Z,8.77
2023-04-07T22:52:44.859Z,7.93
2023-04-07T22:55:11.537Z,10.60
2023-04-07T22:57:38.098Z,9.57
2023-04-07T23:00:05.094Z,8.30
2023-04-07T23:02:31.668Z,8.93
2023-04-07T23:04:58.289Z,9.70
2023-04-07T23:07:24.748Z,9.50
2023-04-07T23:09:51.358Z,9.80
2023-04-07T23:12:17.893Z,7.57
2023-04-07T23:14:44.298Z,8.37
2023-04-07T23:17:11.007Z,8.93
2023-04-07T23:19:37.484Z,8.32
2023-04-07T23:22:03.993Z,8.05
2023-04-07T23:24:30.562Z,7.45
2023-04-07T23:26:57.602Z,7.83
2023-04-07T23:29:24.084Z,9.50
2023-04-07T23:31:50.805Z,8.10
2023-04-07T23:34:17.540Z,7.15
2023-04-07T23:36:44.525Z,7.97
2023-04-07T23:39:11.233Z,8.43
2023-04-07T23:41:38.231Z,7.97
2023-04-07T23:44:04.708Z,7.53
2023-04-07T23:46:31.264Z,7.03
2023-04-07T23:48:57.755Z,7.47
2023-04-07T23:51:24.242Z,7.03
2023-04-07T23:53:50.757Z,7.35
2023-04-07T23:56:17.347Z,6.15
2023-04-07T23:58:43.833Z,6.03
